LICR/REG METAR and TAF weather

Enter ICAO airport designator
Station Type Date Time Source
LICR METAR 2019/06/18 21:50 UTC NOAA

LICR 182150Z 01008KT 350V050 CAVOK 25/18 Q1014


Station Type Date Time Source
LICR Decoded METAR 2019/06/18 21:50 UTC NOAA

Reggio Calabria, Italy (LICR) 38-04N 015-39E 21M
Jun 18, 2019 - 05:50 PM EDT / 2019.06.18 2150 UTC
Wind: from the N (010 degrees) at 9 MPH (8 KT) (direction variable):0
Visibility: greater than 7 mile(s):0
Temperature: 77 F (25 C)
Dew Point: 64 F (18 C)
Relative Humidity: 65%
Pressure (altimeter): 29.94 in. Hg (1014 hPa)
ob: LICR 182150Z 01008KT 350V050 CAVOK 25/18 Q1014
cycle: 22

Station Type Date Time Source
LICR TAF 2019/06/18 18:21 UTC NOAA

TAF LICR 181700Z 1818/1918 35013KT CAVOK

Example: see airport list